Time;durP1;ratioP1;P1;durP2;ratioP2;P2;SDS_P1;SDS_P2;PMS_P1;PMS_P2;Temp;Humidity;BMP_temperature;BMP_pressure;BME280_temperature;BME280_humidity;BME280_pressure;Samples;Min_cycle;Max_cycle;Signal;HPM_P1;HPM_P2
2023/04/06 00:00:32;;;;;;;11.27;5.05;;;;;;;-148.88;72.75;77349.69;5057137;28;20024;-77
2023/04/06 00:02:58;;;;;;;11.20;5.00;;;;;;;-148.88;72.98;77359.84;5056847;28;20074;-77
2023/04/06 00:05:23;;;;;;;12.18;5.03;;;;;;;-148.88;73.37;77353.75;5074541;28;20111;-77
2023/04/06 00:07:49;;;;;;;13.70;5.88;;;;;;;-148.88;73.90;77357.81;5074898;28;20029;-77
2023/04/06 00:10:15;;;;;;;9.95;5.57;;;;;;;-148.88;74.73;77363.91;5075022;28;20106;-77
2023/04/06 00:12:41;;;;;;;11.10;5.28;;;;;;;-148.88;74.86;77365.94;5057279;28;20012;-78
2023/04/06 00:15:06;;;;;;;10.38;5.72;;;;;;;-148.88;74.42;77365.94;5075123;28;20050;-76
2023/04/06 00:17:32;;;;;;;9.85;5.03;;;;;;;-148.88;75.18;77374.09;5057030;28;20024;-77
2023/04/06 00:19:57;;;;;;;11.05;5.40;;;;;;;-148.88;75.84;77382.22;5075298;28;20025;-78
2023/04/06 00:22:22;;;;;;;16.30;6.00;;;;;;;-148.88;75.59;77378.16;5056736;28;20040;-77
2023/04/06 00:24:47;;;;;;;8.80;5.30;;;;;;;-148.88;75.69;77380.19;5074816;28;20059;-77
2023/04/06 00:27:13;;;;;;;11.95;5.47;;;;;;;-148.88;75.95;77374.09;5074644;28;20020;-77
2023/04/06 00:29:39;;;;;;;9.68;4.90;;;;;;;-148.88;75.06;77378.16;5074592;28;20021;-77
2023/04/06 00:32:05;;;;;;;11.80;6.03;;;;;;;-148.88;74.56;77372.03;5074525;28;20025;-77
2023/04/06 00:34:30;;;;;;;11.13;5.50;;;;;;;-148.88;74.73;77374.09;5056563;28;20470;-77
2023/04/06 00:36:56;;;;;;;10.10;5.35;;;;;;;-148.88;75.34;77376.13;5074367;28;20135;-77
2023/04/06 00:39:21;;;;;;;10.55;5.35;;;;;;;-148.88;76.20;77370.00;5074286;28;20078;-77
2023/04/06 00:41:50;;;;;;;10.13;5.40;;;;;;;-148.88;76.13;77386.28;5074381;28;20028;-76
2023/04/06 00:44:16;;;;;;;8.05;4.68;;;;;;;-148.88;76.62;77384.25;5074474;28;20021;-77
2023/04/06 00:46:41;;;;;;;9.50;5.68;;;;;;;-148.88;77.16;77386.28;5056151;28;20020;-77
2023/04/06 00:49:06;;;;;;;13.05;6.10;;;;;;;-148.88;77.36;77392.38;5075166;28;20020;-76
2023/04/06 00:51:32;;;;;;;10.52;5.68;;;;;;;-148.88;78.10;77406.59;5074247;28;20048;-76
2023/04/06 00:53:57;;;;;;;11.82;6.57;;;;;;;-148.88;78.09;77398.47;5056058;28;20054;-77
2023/04/06 00:56:23;;;;;;;8.40;5.07;;;;;;;-148.88;78.16;77398.47;5074018;28;20028;-77
2023/04/06 00:58:49;;;;;;;8.82;5.00;;;;;;;-148.88;77.58;77394.41;5073932;28;20534;-77
2023/04/06 01:01:15;;;;;;;9.60;5.43;;;;;;;-148.88;78.01;77396.44;5055821;28;20124;-76
2023/04/06 01:03:42;;;;;;;11.27;5.70;;;;;;;-148.88;78.75;77406.59;5055884;28;20051;-76
2023/04/06 02:37:32;;;;;;;10.38;5.90;;;;;;;-148.88;84.85;77467.56;5076987;28;20059;-76
2023/04/06 02:39:57;;;;;;;16.05;6.13;;;;;;;-148.88;85.33;77467.56;5076549;28;20031;-75
2023/04/06 02:42:22;;;;;;;12.25;6.07;;;;;;;-148.88;85.64;77473.66;5076923;28;20032;-75
2023/04/06 02:44:48;;;;;;;10.15;5.88;;;;;;;-148.88;85.75;77471.63;5058749;28;20024;-76
2023/04/06 02:47:13;;;;;;;13.60;5.75;;;;;;;-148.88;86.51;77475.69;5058478;28;20021;-76
2023/04/06 02:49:38;;;;;;;12.95;6.45;;;;;;;-148.88;86.08;77487.88;5076434;28;20529;-76
2023/04/06 02:52:03;;;;;;;11.25;6.32;;;;;;;-148.88;86.91;77483.81;5076632;28;20013;-76
2023/04/06 02:54:29;;;;;;;13.30;6.85;;;;;;;-148.88;86.37;77479.75;5076346;28;20420;-76
2023/04/06 02:56:54;;;;;;;10.90;6.18;;;;;;;-148.88;86.33;77487.88;5076245;28;20028;-76
2023/04/06 02:59:20;;;;;;;13.07;6.43;;;;;;;-148.88;86.11;77483.81;5058293;28;20032;-76
2023/04/06 03:01:45;;;;;;;10.32;5.57;;;;;;;-148.88;85.79;77483.81;5058267;28;20469;-76
2023/04/06 03:04:10;;;;;;;14.65;5.90;;;;;;;-148.88;85.31;77487.88;5076173;28;20486;-76
2023/04/06 03:06:36;;;;;;;13.18;5.78;;;;;;;-148.88;84.63;77483.81;5090559;22;20119;-79
2023/04/06 03:09:01;;;;;;;9.77;5.50;;;;;;;-148.88;84.28;77481.78;5086597;28;20031;-79
2023/04/06 03:11:27;;;;;;;9.75;5.13;;;;;;;-148.88;84.01;77481.78;5066988;28;20024;-80
2023/04/06 03:13:52;;;;;;;11.52;5.88;;;;;;;-148.88;83.84;77479.75;5072590;28;20115;-80
2023/04/06 03:16:17;;;;;;;10.85;6.15;;;;;;;-148.88;83.77;77483.81;5092043;28;20029;-79
2023/04/06 03:18:44;;;;;;;13.10;5.72;;;;;;;-148.88;83.47;77483.81;5089311;28;20029;-78
2023/04/06 03:21:09;;;;;;;10.68;6.15;;;;;;;-148.88;83.79;77481.78;5066503;28;20028;-78
2023/04/06 03:23:35;;;;;;;10.75;5.90;;;;;;;-148.88;82.90;77479.75;5072224;28;20457;-78
2023/04/06 03:26:01;;;;;;;11.35;5.78;;;;;;;-148.88;82.76;77483.81;5090634;28;20033;-79
2023/04/06 03:28:26;;;;;;;13.02;6.03;;;;;;;-148.88;82.91;77479.75;5090812;28;20043;-80
2023/04/06 03:30:51;;;;;;;11.95;6.18;;;;;;;-148.88;82.75;77479.75;5090778;28;20024;-79
2023/04/06 03:33:19;;;;;;;9.95;5.13;;;;;;;-148.88;82.95;77483.81;5072100;28;20013;-79
2023/04/06 03:35:44;;;;;;;10.75;5.55;;;;;;;-148.88;82.88;77479.75;5073272;28;20020;-78
2023/04/06 03:38:10;;;;;;;10.10;4.95;;;;;;;-148.88;82.22;77479.75;5089592;28;20414;-79
2023/04/06 03:40:35;;;;;;;10.43;6.10;;;;;;;-148.88;81.69;77471.63;5089184;28;20035;-80
2023/04/06 03:43:00;;;;;;;13.63;5.43;;;;;;;-148.88;81.63;77479.75;5078966;28;20497;-80
2023/04/06 03:45:25;;;;;;;10.00;5.32;;;;;;;-148.88;82.13;77471.63;5060966;28;20029;-79
2023/04/06 03:47:51;;;;;;;11.63;5.45;;;;;;;-148.88;82.01;77471.63;5060847;28;20464;-78
2023/04/06 03:50:16;;;;;;;10.75;5.70;;;;;;;-148.88;82.64;77475.69;5078451;28;20017;-78
2023/04/06 03:52:41;;;;;;;13.85;5.82;;;;;;;-148.88;83.06;77483.81;5061353;28;20024;-79
2023/04/06 03:55:07;;;;;;;11.05;5.10;;;;;;;-148.88;83.05;77496.00;5060915;28;20090;-79
2023/04/06 03:57:33;;;;;;;10.55;5.93;;;;;;;-148.88;82.76;77500.06;5076344;28;20111;-77
2023/04/06 03:59:58;;;;;;;9.00;5.65;;;;;;;-148.88;82.89;77500.06;5059888;28;20097;-77
2023/04/06 04:02:23;;;;;;;11.60;5.00;;;;;;;-148.88;82.31;77498.03;5078458;28;20024;-77
2023/04/06 04:04:49;;;;;;;10.57;5.93;;;;;;;-148.88;82.12;77491.94;5070441;28;20036;-77
2023/04/06 04:07:14;;;;;;;13.55;5.63;;;;;;;-148.88;82.56;77498.03;5094814;28;20025;-77
2023/04/06 04:09:39;;;;;;;10.20;5.18;;;;;;;-148.88;82.41;77496.00;5093828;28;20032;-78
2023/04/06 04:12:05;;;;;;;8.95;5.47;;;;;;;-148.88;82.70;77496.00;5083207;28;20433;-79
2023/04/06 04:14:30;;;;;;;10.50;5.68;;;;;;;-148.88;82.96;77508.19;5080488;28;20052;-79
2023/04/06 04:16:56;;;;;;;12.27;5.63;;;;;;;-148.88;83.33;77514.28;5080114;28;20035;-79
2023/04/06 04:19:21;;;;;;;12.35;5.43;;;;;;;-148.88;83.61;77522.41;5079003;28;20035;-79
2023/04/06 04:21:46;;;;;;;10.77;5.28;;;;;;;-148.88;83.96;77524.44;5079103;28;20088;-78
2023/04/06 04:24:12;;;;;;;9.93;5.32;;;;;;;-148.88;83.43;77520.38;5078375;28;20033;-78
2023/04/06 04:26:38;;;;;;;11.15;5.18;;;;;;;-148.88;83.18;77510.22;5078422;28;20110;-79
2023/04/06 04:29:04;;;;;;;13.85;5.63;;;;;;;-148.88;82.92;77508.19;5061882;28;20086;-79
2023/04/06 04:31:29;;;;;;;14.48;5.40;;;;;;;-148.88;83.07;77508.19;5078710;28;20032;-79
2023/04/06 04:33:55;;;;;;;8.52;5.15;;;;;;;-148.88;82.86;77508.19;5057404;28;20020;-81
2023/04/06 04:36:20;;;;;;;10.98;6.25;;;;;;;-148.88;82.78;77493.97;5059651;28;20477;-80
2023/04/06 04:38:45;;;;;;;13.43;5.55;;;;;;;-148.88;83.10;77500.06;5078182;28;20028;-81
2023/04/06 04:41:11;;;;;;;10.13;5.00;;;;;;;-148.88;82.85;77506.16;5078837;28;20024;-77
2023/04/06 04:43:36;;;;;;;9.52;5.10;;;;;;;-148.88;83.32;77516.31;5077188;28;20359;-79
2023/04/06 04:46:02;;;;;;;9.07;5.93;;;;;;;-148.88;83.77;77508.19;5059357;28;20115;-78
2023/04/06 04:48:27;;;;;;;9.07;4.82;;;;;;;-148.88;83.65;77520.38;5077536;28;20498;-80
2023/04/06 04:50:52;;;;;;;11.05;5.45;;;;;;;-148.88;84.05;77524.44;5059838;28;20372;-80
2023/04/06 04:53:17;;;;;;;8.45;5.32;;;;;;;-148.88;83.94;77526.47;5077714;28;20028;-78
2023/04/06 04:55:43;;;;;;;11.55;5.53;;;;;;;-148.88;84.44;77532.59;5077466;28;20471;-80
2023/04/06 04:58:09;;;;;;;10.35;5.68;;;;;;;-148.88;84.32;77530.53;5077868;28;20098;-80
2023/04/06 05:00:34;;;;;;;11.15;5.65;;;;;;;-148.88;84.30;77528.50;5058368;28;20031;-78
2023/04/06 05:03:00;;;;;;;11.60;6.22;;;;;;;-148.88;84.09;77528.50;5077544;28;20025;-78
2023/04/06 05:05:25;;;;;;;12.32;5.82;;;;;;;-148.88;84.22;77528.50;5059323;28;20432;-79
2023/04/06 05:07:50;;;;;;;11.52;5.57;;;;;;;-148.88;83.94;77524.44;5076842;28;20028;-78
2023/04/06 05:10:16;;;;;;;11.02;5.03;;;;;;;-148.88;83.48;77512.25;5056506;28;20028;-78
2023/04/06 05:12:41;;;;;;;14.23;6.55;;;;;;;-148.88;82.96;77508.19;5075196;28;20130;-78
2023/04/06 05:15:07;;;;;;;10.60;5.47;;;;;;;-148.88;82.47;77491.94;5057635;28;20123;-77
2023/04/06 05:17:33;;;;;;;9.68;5.68;;;;;;;-148.88;82.00;77491.94;5075363;28;20055;-78
2023/04/06 05:19:59;;;;;;;11.20;4.95;;;;;;;-148.88;82.11;77491.94;5058459;28;20032;-78
2023/04/06 05:22:24;;;;;;;11.18;5.72;;;;;;;-148.88;82.12;77491.94;5075806;28;20078;-78
2023/04/06 05:24:52;;;;;;;10.35;5.50;;;;;;;-148.88;81.75;77485.84;5075612;28;20036;-79
2023/04/06 05:27:17;;;;;;;11.00;5.70;;;;;;;-148.88;81.79;77483.81;5076712;28;20025;-78
2023/04/06 05:29:42;;;;;;;11.88;6.05;;;;;;;-148.88;82.08;77487.88;5077436;28;20024;-79
2023/04/06 05:32:07;;;;;;;10.50;5.50;;;;;;;-148.88;81.93;77483.81;5075893;28;20066;-79
2023/04/06 05:34:33;;;;;;;11.65;5.63;;;;;;;-148.88;82.33;77479.75;5075474;28;20021;-78
2023/04/06 05:36:58;;;;;;;17.23;5.75;;;;;;;-148.88;82.28;77473.66;5075633;28;20040;-78
2023/04/06 05:39:23;;;;;;;10.07;5.50;;;;;;;-148.88;83.21;77471.63;5059049;28;20028;-81
2023/04/06 05:41:49;;;;;;;11.38;6.25;;;;;;;-148.88;84.47;77471.63;5076090;28;20100;-77
2023/04/06 05:44:14;;;;;;;13.45;7.07;;;;;;;-148.88;85.97;77479.75;5058049;28;20032;-79
2023/04/06 05:46:39;;;;;;;11.88;6.60;;;;;;;-148.88;87.82;77498.03;5056214;28;20017;-78
2023/04/06 05:49:05;;;;;;;14.45;7.05;;;;;;;-148.88;88.74;77491.94;5074922;28;20039;-79
2023/04/06 05:51:30;;;;;;;14.18;7.80;;;;;;;-148.88;89.17;77487.88;5057277;28;20115;-79
2023/04/06 05:53:55;;;;;;;17.02;7.55;;;;;;;-148.88;89.02;77493.97;5057508;28;20048;-79
2023/04/06 05:56:21;;;;;;;16.23;7.28;;;;;;;-148.88;89.30;77489.91;5075749;28;20032;-79
2023/04/06 05:58:46;;;;;;;14.02;7.10;;;;;;;-148.88;90.00;77487.88;5076486;28;20032;-79
2023/04/06 06:01:11;;;;;;;13.05;6.95;;;;;;;-148.88;89.92;77483.81;5057313;28;20060;-80
2023/04/06 06:03:37;;;;;;;12.07;6.55;;;;;;;-148.88;88.84;77471.63;5075348;28;20021;-79
2023/04/06 06:06:03;;;;;;;13.93;6.60;;;;;;;-148.88;87.89;77447.22;5075456;28;20385;-78
2023/04/06 06:08:30;;;;;;;11.35;6.30;;;;;;;-148.88;87.29;77443.16;5057672;28;20070;-79
2023/04/06 06:10:56;;;;;;;12.68;7.78;;;;;;;-148.88;86.52;77443.16;5057801;28;20024;-79
2023/04/06 06:13:22;;;;;;;13.75;7.15;;;;;;;-148.88;86.20;77418.78;5057266;28;20112;-79
2023/04/06 06:15:48;;;;;;;10.85;6.20;;;;;;;-148.88;85.47;77402.53;5075482;28;20024;-80
2023/04/06 06:18:13;;;;;;;15.18;6.57;;;;;;;-148.88;84.39;77390.34;5075695;28;20021;-79
2023/04/06 06:20:38;;;;;;;14.02;7.05;;;;;;;-148.88;84.73;77380.19;5075618;28;20396;-80
2023/04/06 06:23:03;;;;;;;11.65;6.03;;;;;;;-148.88;84.04;77363.91;5073636;28;20109;-78
2023/04/06 06:25:30;;;;;;;12.90;6.70;;;;;;;-148.88;83.89;77349.69;5075306;28;20025;-80
2023/04/06 06:27:56;;;;;;;12.10;6.75;;;;;;;-148.88;82.36;77341.56;5076413;28;20427;-80
2023/04/06 06:30:21;;;;;;;12.73;6.80;;;;;;;-148.88;82.33;77325.31;5058422;28;20027;-80
2023/04/06 06:32:47;;;;;;;10.00;5.93;;;;;;;-148.88;82.29;77317.19;5076044;28;20039;-80
2023/04/06 06:35:14;;;;;;;11.25;6.50;;;;;;;-148.88;81.63;77305.00;5076464;28;20084;-79
2023/04/06 06:37:39;;;;;;;11.93;6.57;;;;;;;-148.88;80.00;77292.81;5076268;28;20055;-82
2023/04/06 06:40:05;;;;;;;13.68;7.53;;;;;;;-148.88;81.08;77280.59;5060193;28;20051;-80
2023/04/06 06:42:31;;;;;;;12.88;6.57;;;;;;;-148.88;81.83;77264.34;5060295;28;20020;-81
2023/04/06 06:44:56;;;;;;;12.30;6.93;;;;;;;-148.88;81.43;77258.25;5079337;28;20394;-80
2023/04/06 06:47:21;;;;;;;13.65;6.78;;;;;;;-148.88;81.38;77237.94;5059277;28;20132;-79
2023/04/06 06:49:46;;;;;;;14.77;7.03;;;;;;;-148.88;78.99;77231.84;5056661;28;20070;-79
2023/04/06 06:52:12;;;;;;;13.10;6.35;;;;;;;-148.88;76.50;77219.66;5074026;28;20021;-80
2023/04/06 06:54:37;;;;;;;13.82;7.20;;;;;;;-148.88;78.88;77199.31;5056264;28;20034;-80
2023/04/06 06:57:05;;;;;;;12.82;6.13;;;;;;;-148.88;77.97;77185.09;5074044;28;20518;-80
2023/04/06 06:59:30;;;;;;;11.77;5.70;;;;;;;-148.88;76.38;77170.88;5055155;28;20395;-78
2023/04/06 07:01:55;;;;;;;10.80;5.53;;;;;;;-148.88;77.00;77150.56;5073236;28;20487;-80
2023/04/06 07:04:20;;;;;;;15.88;6.05;;;;;;;-148.88;76.39;77130.25;5073394;28;20024;-79
2023/04/06 07:06:46;;;;;;;12.30;5.82;;;;;;;-148.88;75.60;77122.13;5073445;28;20448;-79
2023/04/06 07:09:11;;;;;;;14.32;5.88;;;;;;;-148.88;75.06;77109.94;5073719;28;20029;-80
2023/04/06 07:11:36;;;;;;;11.98;6.32;;;;;;;-148.88;72.18;77103.81;5073768;28;20420;-80
2023/04/06 07:14:01;;;;;;;10.68;5.95;;;;;;;-148.88;72.23;77081.47;5057037;28;20024;-79
2023/04/06 07:16:27;;;;;;;10.82;6.15;;;;;;;-148.88;74.27;77057.09;5077502;28;20017;-80
2023/04/06 07:22:57;;;;;;;10.35;5.97;;;;;;;-148.88;70.70;77014.44;4977246;28;20062;-81
2023/04/06 07:25:53;;;;;;;;;;;;;;;;;;;;;
2023/04/06 07:37:50;;;;;;;11.93;6.10;;;;;;;-148.88;65.88;76920.97;4894526;29;20036;-79
2023/04/06 07:40:15;;;;;;;11.88;5.72;;;;;;;-148.88;65.33;76898.63;4987654;28;20412;-80
2023/04/06 07:42:40;;;;;;;14.00;6.30;;;;;;;-148.88;64.62;76898.63;5029849;28;20536;-80
2023/04/06 07:45:07;;;;;;;10.90;6.03;;;;;;;-148.88;63.50;76882.34;5058634;28;20166;-80
2023/04/06 07:47:32;;;;;;;9.95;5.78;;;;;;;-148.88;63.30;76864.06;5059369;28;20020;-81
2023/04/06 07:49:57;;;;;;;11.43;5.65;;;;;;;-148.88;63.68;76841.72;5058973;28;20028;-80
2023/04/06 07:52:23;;;;;;;11.57;6.43;;;;;;;-148.88;64.07;76831.56;5077352;28;20066;-80
2023/04/06 07:54:49;;;;;;;15.98;5.38;;;;;;;-148.88;62.07;76809.22;5058840;28;20073;-80
2023/04/06 07:57:14;;;;;;;9.00;5.85;;;;;;;-148.88;61.84;76801.09;5058822;28;20044;-80
2023/04/06 07:59:40;;;;;;;9.32;5.50;;;;;;;-148.88;61.30;76758.41;5059076;28;20095;-80
2023/04/06 08:02:05;;;;;;;11.88;5.47;;;;;;;-148.88;59.30;76776.72;5077070;28;20056;-81
2023/04/06 08:04:31;;;;;;;12.68;6.70;;;;;;;-148.88;61.43;76729.97;5058640;28;20081;-80
2023/04/06 08:06:56;;;;;;;14.95;4.72;;;;;;;-148.88;56.84;76736.06;5058904;28;20035;-81
2023/04/06 08:09:21;;;;;;;10.25;5.38;;;;;;;-148.88;58.54;76715.75;5076470;28;20025;-80
2023/04/06 08:11:48;;;;;;;10.88;5.78;;;;;;;-148.88;57.05;76701.53;5058161;28;20032;-80
2023/04/06 08:14:15;;;;;;;11.43;5.57;;;;;;;-148.88;55.07;76695.44;5075643;28;20095;-79
2023/04/06 08:16:40;;;;;;;11.95;6.35;;;;;;;-148.88;54.93;76687.31;5057820;28;20021;-79
2023/04/06 08:19:07;;;;;;;8.57;5.32;;;;;;;-148.88;56.54;76671.06;5076027;28;20115;-77
2023/04/06 08:21:33;;;;;;;9.35;5.25;;;;;;;-148.88;56.13;76648.72;5058661;28;20028;-82
2023/04/06 08:23:58;;;;;;;8.82;5.03;;;;;;;-148.88;53.56;76632.47;5058813;28;20225;-80
2023/04/06 08:26:23;;;;;;;11.10;5.70;;;;;;;-148.88;53.78;76634.50;5058501;28;20024;-83
2023/04/06 08:28:49;;;;;;;13.10;6.35;;;;;;;-148.88;55.68;76593.84;5058775;28;20538;-80
2023/04/06 08:31:14;;;;;;;11.00;5.70;;;;;;;-148.88;53.24;76593.84;5062460;28;20024;-82
2023/04/06 08:33:40;;;;;;;10.30;5.88;;;;;;;-148.88;55.16;76561.34;5062586;28;20023;-79
2023/04/06 08:36:13;;;;;;;14.00;6.65;;;;;;;-148.88;50.84;76539.00;5081755;28;20028;-79
2023/04/06 08:38:39;;;;;;;9.68;5.47;;;;;;;-148.88;51.73;76506.50;5081391;28;20028;-81
2023/04/06 08:41:12;;;;;;;10.75;5.57;;;;;;;-148.88;50.59;76474.00;5063891;28;20095;-81
2023/04/06 08:43:43;;;;;;;10.02;5.60;;;;;;;-148.88;48.99;76500.41;5079441;28;20028;-82
2023/04/06 08:46:11;;;;;;;10.80;5.35;;;;;;;-148.88;49.21;76474.00;5064356;28;20028;-84
2023/04/06 08:48:37;;;;;;;8.80;5.05;;;;;;;-148.88;50.62;76455.72;5062193;28;20048;-81
2023/04/06 08:51:03;;;;;;;10.93;5.93;;;;;;;-148.88;51.38;76421.19;5057004;28;20020;-81
2023/04/06 08:53:29;;;;;;;8.68;5.40;;;;;;;-148.88;51.07;76402.88;5057104;28;20360;-80
2023/04/06 08:55:57;;;;;;;10.35;5.03;;;;;;;-148.88;48.66;76402.88;5057292;28;20017;-81
2023/04/06 08:58:23;;;;;;;11.23;5.80;;;;;;;-148.88;48.07;76378.50;5057442;28;20027;-80
2023/04/06 09:00:50;;;;;;;11.75;5.95;;;;;;;-148.88;48.32;76350.06;5075118;28;20024;-81
2023/04/06 09:03:17;;;;;;;11.90;6.00;;;;;;;-148.88;47.61;76337.88;5057267;28;20486;-80
2023/04/06 09:05:43;;;;;;;10.80;5.93;;;;;;;-148.88;47.92;76303.34;5075470;28;20467;-80
2023/04/06 09:08:09;;;;;;;12.05;5.25;;;;;;;-148.88;46.84;76309.44;5075728;28;20494;-80
2023/04/06 09:10:34;;;;;;;8.45;5.50;;;;;;;-148.88;45.00;76260.69;5077592;28;20039;-80
2023/04/06 09:13:04;;;;;;;11.30;5.95;;;;;;;-148.88;44.32;76230.22;5077783;28;20020;-81
2023/04/06 09:15:30;;;;;;;11.50;6.40;;;;;;;-148.88;42.59;76244.44;5059365;28;20031;-80
2023/04/06 09:17:55;;;;;;;9.68;7.40;;;;;;;-148.88;44.62;76197.72;5077177;28;20024;-80
2023/04/06 09:20:28;;;;;;;10.52;5.80;;;;;;;-148.88;41.32;76211.94;5059202;28;20087;-80
2023/04/06 09:22:54;;;;;;;11.82;5.82;;;;;;;-148.88;42.53;76175.38;5077378;28;20059;-81
2023/04/06 09:25:26;;;;;;;9.68;7.43;;;;;;;-148.88;43.07;76134.72;5056872;28;20024;-80
2023/04/06 09:28:03;;;;;;;9.80;5.95;;;;;;;-148.88;42.46;76116.44;5056736;28;20016;-80
2023/04/06 09:30:29;;;;;;;9.90;7.65;;;;;;;-148.88;40.42;76102.22;5076270;28;20394;-79
2023/04/06 09:32:57;;;;;;;11.02;7.43;;;;;;;-148.88;40.24;76108.31;5077865;28;20043;-81
2023/04/06 09:35:23;;;;;;;12.50;8.05;;;;;;;-148.88;40.09;76083.94;5077845;28;20079;-81
2023/04/06 09:37:55;;;;;;;10.20;8.32;;;;;;;-148.88;40.14;76033.16;5060145;28;20017;-81
2023/04/06 09:40:21;;;;;;;11.68;8.18;;;;;;;-148.88;39.22;75982.38;5057816;28;20554;-78
2023/04/06 09:42:52;;;;;;;10.77;7.90;;;;;;;-148.88;39.93;75958.00;5074983;28;20436;-78
2023/04/06 09:45:20;;;;;;;10.98;8.07;;;;;;;-148.88;38.13;75955.97;5073607;28;20025;-77
2023/04/06 09:47:46;;;;;;;12.18;7.75;;;;;;;-148.88;37.53;75921.44;5073186;28;20483;-78
2023/04/06 09:50:13;;;;;;;10.15;7.80;;;;;;;-148.88;37.91;75911.28;5073376;28;20044;-78
2023/04/06 09:52:49;;;;;;;9.98;7.63;;;;;;;-148.88;38.29;75868.63;5054910;28;20020;-77
2023/04/06 09:55:22;;;;;;;11.15;8.23;;;;;;;-148.88;36.97;75846.28;5055450;28;20027;-77
2023/04/06 09:58:03;;;;;;;9.93;7.63;;;;;;;-148.88;37.19;75844.25;5055158;28;20031;-77
2023/04/06 10:00:32;;;;;;;9.30;7.25;;;;;;;-148.88;37.54;75854.41;5072900;28;20615;-77
2023/04/06 10:03:28;;;;;;;11.75;8.32;;;;;;;-148.88;36.81;75870.66;5073058;28;20047;-77
2023/04/06 10:06:01;;;;;;;11.00;8.43;;;;;;;-148.88;38.09;75870.66;5072713;28;20490;-77
2023/04/06 10:08:27;;;;;;;10.27;7.85;;;;;;;-148.88;37.82;75834.09;5054718;28;20024;-77
2023/04/06 10:10:56;;;;;;;10.52;8.10;;;;;;;-148.88;36.05;75807.69;5072770;28;20063;-77
2023/04/06 10:13:24;;;;;;;11.00;7.90;;;;;;;-148.88;37.11;75803.63;5072693;28;20066;-77
2023/04/06 10:15:50;;;;;;;11.48;8.85;;;;;;;-148.88;34.94;75789.41;5054588;28;20021;-77
2023/04/06 10:18:16;;;;;;;10.65;8.43;;;;;;;-148.88;36.38;75785.34;5072890;28;20467;-77
2023/04/06 10:21:00;;;;;;;9.80;8.00;;;;;;;-148.88;37.45;75825.97;5072617;28;20039;-77
2023/04/06 10:23:39;;;;;;;11.95;8.68;;;;;;;-148.88;37.73;75866.59;5072912;28;20478;-76
2023/04/06 10:26:05;;;;;;;9.25;8.20;;;;;;;-148.88;36.25;75807.69;5072604;28;20503;-77
2023/04/06 10:28:35;;;;;;;10.55;8.50;;;;;;;-148.88;37.73;75836.13;5055647;28;20035;-77
2023/04/06 10:31:04;;;;;;;10.63;8.25;;;;;;;-148.88;38.02;75748.78;5072670;28;20028;-77
2023/04/06 10:33:29;;;;;;;10.95;8.50;;;;;;;-148.88;36.45;75752.84;5074109;28;20028;-77
2023/04/06 10:35:55;;;;;;;12.60;8.60;;;;;;;-148.88;36.53;75720.34;5072612;28;20107;-77
2023/04/06 10:38:22;;;;;;;11.40;8.70;;;;;;;-148.88;35.31;75734.56;5072666;28;20059;-77
2023/04/06 10:40:48;;;;;;;11.15;8.00;;;;;;;-148.88;37.12;75752.84;5054511;28;20025;-77
2023/04/06 10:43:21;;;;;;;12.48;8.75;;;;;;;-148.88;37.70;75730.50;5054502;28;20043;-77
2023/04/06 10:45:57;;;;;;;14.05;9.30;;;;;;;-148.88;36.93;75641.13;5072413;28;20209;-77
2023/04/06 10:48:23;;;;;;;12.52;8.73;;;;;;;-148.88;35.64;75659.41;5074619;28;20509;-77
2023/04/06 10:50:53;;;;;;;14.00;8.88;;;;;;;-148.88;33.91;75665.50;5076556;28;20067;-77
2023/04/06 10:53:22;;;;;;;13.27;9.75;;;;;;;-148.88;33.63;75647.22;5076589;28;20066;-77
2023/04/06 10:55:49;;;;;;;13.57;9.30;;;;;;;-148.88;33.02;75651.28;5076556;28;20105;-77
2023/04/06 10:58:14;;;;;;;12.98;9.00;;;;;;;-148.88;32.86;75637.06;5077702;28;20031;-77
2023/04/06 11:00:44;;;;;;;11.10;8.32;;;;;;;-148.88;33.57;75645.19;5059521;28;20394;-78
2023/04/06 11:03:10;;;;;;;12.52;9.30;;;;;;;-148.88;32.79;75651.28;5076319;28;20478;-77
2023/04/06 11:05:35;;;;;;;12.68;8.95;;;;;;;-148.88;32.72;75691.91;5076211;28;20128;-78
2023/04/06 11:08:00;;;;;;;11.00;8.48;;;;;;;-148.88;33.62;75665.50;5075983;28;20021;-77
2023/04/06 11:10:26;;;;;;;11.93;9.43;;;;;;;-148.88;32.85;75667.53;5075969;28;20056;-77
2023/04/06 11:12:54;;;;;;;14.95;9.55;;;;;;;-148.88;33.39;75643.16;5076006;28;20021;-77
2023/04/06 11:15:20;;;;;;;13.30;9.40;;;;;;;-148.88;31.50;75616.75;5076177;28;20498;-77
2023/04/06 11:17:45;;;;;;;13.98;9.50;;;;;;;-148.88;32.56;75602.53;5076269;28;20126;-77
2023/04/06 11:20:11;;;;;;;12.93;8.57;;;;;;;-148.88;33.13;75606.59;5075924;28;20025;-77
2023/04/06 11:22:47;;;;;;;15.27;9.80;;;;;;;-148.88;33.28;75588.34;5058144;28;20495;-77
2023/04/06 11:25:13;;;;;;;13.70;9.43;;;;;;;-148.88;31.67;75553.81;5076680;28;20537;-81
2023/04/06 11:27:39;;;;;;;14.27;9.55;;;;;;;-148.88;33.26;75505.06;5079183;28;20021;-81
2023/04/06 11:30:05;;;;;;;13.45;9.52;;;;;;;-148.88;32.38;75494.91;5061577;28;20023;-80
2023/04/06 11:32:41;;;;;;;13.68;10.02;;;;;;;-148.88;31.84;75563.97;5079498;28;20019;-81
2023/04/06 11:35:06;;;;;;;14.32;9.70;;;;;;;-148.88;32.68;75635.03;5079388;28;20017;-81
2023/04/06 11:37:32;;;;;;;13.48;9.45;;;;;;;-148.88;32.68;75630.97;5079923;28;20166;-81
2023/04/06 11:39:58;;;;;;;12.30;8.95;;;;;;;-148.88;32.48;75626.91;5061412;28;20040;-81
2023/04/06 11:42:25;;;;;;;13.85;9.73;;;;;;;-148.88;33.88;75543.66;5079184;28;20028;-81
2023/04/06 11:45:00;;;;;;;14.20;9.30;;;;;;;-148.88;32.69;75541.63;5079460;28;20056;-81
2023/04/06 11:47:33;;;;;;;12.90;9.27;;;;;;;-148.88;32.60;75533.50;5061153;28;20021;-81
2023/04/06 11:50:13;;;;;;;11.93;9.85;;;;;;;-148.88;31.83;75541.63;5079523;28;20031;-80
2023/04/06 11:52:39;;;;;;;12.32;9.88;;;;;;;-148.88;32.56;75501.00;5076582;28;20119;-80
2023/04/06 11:55:17;;;;;;;12.80;9.73;;;;;;;-148.88;31.34;75501.00;5076961;28;20386;-80
2023/04/06 11:57:42;;;;;;;13.48;9.90;;;;;;;-148.88;32.91;75480.69;5077428;28;20022;-81
2023/04/06 12:00:09;;;;;;;13.48;10.20;;;;;;;-148.88;32.59;75462.41;5058797;28;20107;-81
2023/04/06 12:02:36;;;;;;;15.23;10.38;;;;;;;-148.88;33.21;75460.38;5078050;28;20024;-81
2023/04/06 12:05:03;;;;;;;13.13;10.18;;;;;;;-148.88;34.34;75505.06;5078293;28;20024;-81
2023/04/06 12:07:29;;;;;;;13.63;10.60;;;;;;;-148.88;33.98;75456.31;5078653;28;20096;-81
2023/04/06 12:09:55;;;;;;;15.15;10.15;;;;;;;-148.88;31.86;75458.34;5078558;28;20025;-81
2023/04/06 12:12:20;;;;;;;13.75;10.10;;;;;;;-148.88;33.12;75427.88;5078662;28;20383;-81
2023/04/06 12:14:45;;;;;;;14.25;10.13;;;;;;;-148.88;32.18;75407.56;5077932;28;20367;-81
2023/04/06 12:17:11;;;;;;;15.13;9.93;;;;;;;-148.88;32.04;75517.25;5078367;28;20056;-81
2023/04/06 12:19:36;;;;;;;13.25;9.57;;;;;;;-148.88;32.50;75421.78;5083349;28;20112;-82
2023/04/06 12:22:01;;;;;;;13.73;9.57;;;;;;;-148.88;32.19;75405.53;5060966;28;20032;-82
2023/04/06 12:24:27;;;;;;;14.10;9.57;;;;;;;-148.88;31.99;75366.94;5060061;28;20024;-81
2023/04/06 12:26:53;;;;;;;12.98;9.90;;;;;;;-148.88;31.19;75383.19;5059306;28;20494;-81
2023/04/06 12:29:18;;;;;;;13.25;9.70;;;;;;;-148.88;31.30;75464.44;5075975;28;20024;-81
2023/04/06 12:31:44;;;;;;;13.43;10.05;;;;;;;-148.88;32.74;75472.56;5075908;28;20027;-82
2023/04/06 12:34:10;;;;;;;14.45;10.75;;;;;;;-148.88;31.72;75476.63;5076895;28;20071;-82
2023/04/06 12:36:37;;;;;;;14.95;10.40;;;;;;;-148.88;31.62;75494.91;5058989;28;20492;-81
2023/04/06 12:39:02;;;;;;;13.77;10.15;;;;;;;-148.88;31.31;75505.06;5078251;28;20024;-82
2023/04/06 12:41:28;;;;;;;14.40;9.32;;;;;;;-148.88;29.43;75501.00;5060143;28;20400;-82
2023/04/06 12:43:53;;;;;;;11.35;8.13;;;;;;;-148.88;30.44;75476.63;5060560;28;20020;-81
2023/04/06 12:46:19;;;;;;;12.35;8.85;;;;;;;-148.88;31.60;75427.88;5078449;28;20129;-81
2023/04/06 12:48:45;;;;;;;13.50;9.32;;;;;;;-148.88;30.90;75448.19;5062019;28;20017;-81
2023/04/06 12:51:10;;;;;;;13.07;8.82;;;;;;;-148.88;30.85;75407.56;5078284;28;20027;-80
2023/04/06 12:53:35;;;;;;;14.10;8.48;;;;;;;-148.88;29.24;75466.47;5078102;28;20027;-80